Time;durP1;ratioP1;P1;durP2;ratioP2;P2;SDS_P1;SDS_P2;PMS_P1;PMS_P2;Temp;Humidity;BMP_temperature;BMP_pressure;BME280_temperature;BME280_humidity;BME280_pressure;Samples;Min_cycle;Max_cycle;Signal;HPM_P1;HPM_P2
2023/09/02 00:02:23;;;;;;;14.57;13.37;;;18.30;99.90;;;;;;5034877;28;20460;-58
2023/09/02 00:04:49;;;;;;;15.30;13.90;;;18.30;99.90;;;;;;5034700;28;20532;-58
2023/09/02 00:07:14;;;;;;;13.90;12.67;;;18.30;99.90;;;;;;5032490;28;20503;-58
2023/09/02 00:09:40;;;;;;;13.73;12.50;;;18.30;99.90;;;;;;5034497;28;20174;-58
2023/09/02 00:12:09;;;;;;;13.90;12.80;;;18.30;99.90;;;;;;5033709;28;20186;-58
2023/09/02 00:14:35;;;;;;;14.00;12.70;;;18.30;99.90;;;;;;5034034;28;20232;-58
2023/09/02 00:17:00;;;;;;;13.70;12.53;;;18.30;99.90;;;;;;5033335;28;20405;-59
2023/09/02 00:19:26;;;;;;;13.47;12.13;;;18.30;99.90;;;;;;5034306;28;20174;-58
2023/09/02 00:21:52;;;;;;;14.80;13.50;;;18.30;99.90;;;;;;5034411;28;20464;-58
2023/09/02 00:24:18;;;;;;;13.27;12.07;;;18.30;99.90;;;;;;5033329;28;20660;-58
2023/09/02 00:26:44;;;;;;;13.10;12.10;;;18.30;99.90;;;;;;5033975;28;20414;-58
2023/09/02 00:29:09;;;;;;;14.13;12.30;;;18.30;99.90;;;;;;5033617;28;20178;-59
2023/09/02 00:31:35;;;;;;;14.80;13.50;;;18.30;99.90;;;;;;5034372;28;20171;-58
2023/09/02 00:34:01;;;;;;;13.53;12.40;;;18.30;99.90;;;;;;5033644;28;20175;-59
2023/09/02 00:36:30;;;;;;;14.17;12.87;;;18.30;99.90;;;;;;5034062;28;20520;-59
2023/09/02 00:38:59;;;;;;;14.33;13.03;;;18.30;99.90;;;;;;5033769;28;20171;-59
2023/09/02 00:41:32;;;;;;;13.80;12.53;;;18.30;99.90;;;;;;5033608;28;20441;-59
2023/09/02 00:43:59;;;;;;;14.20;12.83;;;18.30;99.90;;;;;;5033369;28;20752;-59
2023/09/02 00:46:24;;;;;;;14.67;13.07;;;18.30;99.90;;;;;;5033576;28;20500;-58
2023/09/02 00:48:50;;;;;;;14.40;13.20;;;18.30;99.90;;;;;;5034227;28;20488;-58
2023/09/02 00:51:16;;;;;;;14.17;12.87;;;18.30;99.90;;;;;;5033251;28;20417;-58
2023/09/02 00:53:44;;;;;;;14.90;13.10;;;18.30;99.90;;;;;;5033914;28;20405;-58
2023/09/02 00:56:15;;;;;;;13.87;12.67;;;18.30;99.90;;;;;;5033131;28;20175;-58
2023/09/02 00:58:41;;;;;;;13.87;12.57;;;18.30;99.90;;;;;;5032931;28;20386;-58
2023/09/02 01:01:08;;;;;;;13.90;12.50;;;18.30;99.90;;;;;;5033380;28;20397;-58
2023/09/02 01:03:37;;;;;;;13.50;12.30;;;18.40;99.90;;;;;;5032262;28;20571;-58
2023/09/02 01:06:04;;;;;;;14.77;13.27;;;18.30;99.90;;;;;;5032616;28;20440;-58
2023/09/02 01:08:30;;;;;;;14.47;13.07;;;18.30;99.90;;;;;;5033315;28;20424;-59
2023/09/02 01:10:59;;;;;;;12.90;11.80;;;18.30;99.90;;;;;;5033724;28;20396;-58
2023/09/02 01:13:25;;;;;;;12.40;11.40;;;18.30;99.90;;;;;;5033281;28;20478;-58
2023/09/02 01:15:54;;;;;;;13.37;12.07;;;18.30;99.90;;;;;;5033515;28;20417;-58
2023/09/02 01:18:24;;;;;;;12.53;11.43;;;18.30;99.90;;;;;;5032718;28;20472;-58
2023/09/02 01:21:01;;;;;;;12.90;11.70;;;18.30;99.90;;;;;;5033270;28;20468;-58
2023/09/02 01:23:55;;;;;;;12.23;11.17;;;18.30;99.90;;;;;;5033402;28;20448;-58
2023/09/02 01:26:51;;;;;;;13.17;12.00;;;18.30;99.90;;;;;;5032989;28;20397;-58
2023/09/02 01:29:21;;;;;;;11.90;10.90;;;18.30;99.90;;;;;;5032301;28;20963;-58
2023/09/02 01:31:48;;;;;;;12.53;11.43;;;18.20;99.90;;;;;;5033151;28;20385;-58
2023/09/02 01:34:16;;;;;;;13.60;12.30;;;18.20;99.90;;;;;;5032374;28;20741;-58
2023/09/02 01:36:45;;;;;;;13.43;12.33;;;18.20;99.90;;;;;;5033297;28;20504;-58
2023/09/02 01:39:14;;;;;;;13.33;12.13;;;18.30;99.90;;;;;;5032630;28;20401;-59
2023/09/02 01:41:41;;;;;;;14.57;13.07;;;18.30;99.90;;;;;;5032571;28;20779;-58
2023/09/02 01:44:08;;;;;;;13.70;12.37;;;18.30;99.90;;;;;;5032287;28;20503;-59
2023/09/02 01:46:34;;;;;;;14.10;12.83;;;18.30;99.90;;;;;;5032519;28;20443;-58
2023/09/02 01:49:01;;;;;;;14.47;13.37;;;18.30;99.90;;;;;;5032914;28;20409;-59
2023/09/02 01:51:28;;;;;;;13.57;12.43;;;18.30;99.90;;;;;;5032974;28;20413;-58
2023/09/02 01:53:54;;;;;;;14.00;12.80;;;18.30;99.90;;;;;;5032658;28;20916;-58
2023/09/02 01:56:21;;;;;;;15.43;13.97;;;18.30;99.90;;;;;;5032356;28;20424;-58
2023/09/02 01:58:49;;;;;;;14.70;13.40;;;18.30;99.90;;;;;;5032675;28;20470;-58
2023/09/02 02:01:15;;;;;;;13.87;12.57;;;18.30;99.90;;;;;;5032274;28;20447;-58
2023/09/02 02:04:06;;;;;;;12.63;11.63;;;18.40;99.90;;;;;;5031364;28;20477;-58
2023/09/02 02:06:33;;;;;;;13.70;12.30;;;18.30;99.90;;;;;;5032218;28;20418;-58
2023/09/02 02:09:04;;;;;;;13.20;11.87;;;18.40;99.90;;;;;;5032270;28;20432;-58
2023/09/02 02:11:35;;;;;;;13.67;12.50;;;18.40;99.90;;;;;;5033095;28;20392;-58
2023/09/02 02:14:02;;;;;;;14.53;13.33;;;18.30;99.90;;;;;;5032711;28;20420;-59
2023/09/02 02:16:29;;;;;;;13.63;12.47;;;18.30;99.90;;;;;;5032362;28;20773;-58
2023/09/02 02:18:55;;;;;;;13.93;12.83;;;18.30;99.90;;;;;;5032741;28;20401;-58
2023/09/02 02:21:21;;;;;;;13.93;12.73;;;18.40;99.90;;;;;;5031373;28;20498;-59
2023/09/02 02:23:47;;;;;;;13.67;12.47;;;18.40;99.90;;;;;;5032671;28;20404;-58
2023/09/02 02:26:13;;;;;;;13.50;12.30;;;18.40;99.90;;;;;;5030896;28;20630;-59
2023/09/02 02:28:38;;;;;;;13.57;12.47;;;18.40;99.90;;;;;;5032677;28;20260;-58
2023/09/02 02:31:04;;;;;;;13.57;12.47;;;18.30;99.90;;;;;;5032022;28;20912;-58
2023/09/02 02:33:30;;;;;;;13.63;12.43;;;18.40;99.90;;;;;;5032268;28;20217;-58
2023/09/02 02:35:56;;;;;;;11.87;10.93;;;18.40;99.90;;;;;;5032090;28;20776;-58
2023/09/02 02:38:22;;;;;;;13.23;10.70;;;18.40;99.90;;;;;;5031880;28;20165;-58
2023/09/02 02:40:47;;;;;;;12.70;11.63;;;18.30;99.90;;;;;;5034835;28;20202;-58
2023/09/02 02:43:13;;;;;;;12.87;11.80;;;18.30;99.90;;;;;;5035876;28;20198;-59
2023/09/02 02:45:40;;;;;;;12.83;11.53;;;18.30;99.90;;;;;;5036184;28;20170;-58
2023/09/02 02:48:11;;;;;;;11.70;10.80;;;18.30;99.90;;;;;;5035887;28;20181;-59
2023/09/02 02:50:36;;;;;;;10.60;9.80;;;18.30;99.90;;;;;;5036095;28;20438;-59
2023/09/02 02:53:02;;;;;;;11.50;10.57;;;18.30;99.90;;;;;;5034769;28;20417;-59
2023/09/02 02:55:28;;;;;;;13.00;11.90;;;18.30;99.90;;;;;;5035895;28;20629;-58
2023/09/02 02:57:56;;;;;;;13.17;12.10;;;18.30;99.90;;;;;;5035624;28;20444;-59
2023/09/02 03:00:22;;;;;;;13.40;12.27;;;18.20;99.90;;;;;;5035011;28;20691;-58
2023/09/02 03:02:51;;;;;;;13.33;12.23;;;18.20;99.90;;;;;;5035671;28;20567;-58
2023/09/02 03:05:19;;;;;;;12.73;11.57;;;18.20;99.90;;;;;;5034464;28;20225;-58
2023/09/02 03:07:45;;;;;;;12.30;11.30;;;18.10;99.90;;;;;;5034776;28;20428;-58
2023/09/02 03:10:11;;;;;;;13.37;12.27;;;18.00;99.90;;;;;;5034208;28;20426;-59
2023/09/02 03:12:37;;;;;;;13.20;12.13;;;18.00;99.90;;;;;;5035031;28;20194;-58
2023/09/02 03:15:03;;;;;;;12.30;11.40;;;18.00;99.90;;;;;;5034681;28;20412;-58
2023/09/02 03:17:29;;;;;;;11.70;10.80;;;18.00;99.90;;;;;;5033634;28;20170;-58
2023/09/02 03:19:55;;;;;;;12.47;11.50;;;18.00;99.90;;;;;;5034555;28;20408;-58
2023/09/02 03:22:20;;;;;;;11.03;10.17;;;18.00;99.90;;;;;;5033706;28;20198;-58
2023/09/02 03:24:46;;;;;;;12.00;10.90;;;18.00;99.90;;;;;;5033293;28;20240;-58
2023/09/02 03:27:12;;;;;;;13.13;12.13;;;18.00;99.90;;;;;;5033969;28;20171;-59
2023/09/02 03:29:37;;;;;;;12.90;11.80;;;18.00;99.90;;;;;;5034575;28;20178;-58
2023/09/02 03:32:03;;;;;;;11.93;10.93;;;18.00;99.90;;;;;;5034470;28;20178;-58
2023/09/02 03:34:31;;;;;;;13.20;12.10;;;18.00;99.90;;;;;;5033698;28;20170;-58
2023/09/02 03:36:57;;;;;;;13.37;12.27;;;18.00;99.90;;;;;;5034391;28;20216;-58
2023/09/02 03:39:22;;;;;;;12.00;11.00;;;18.00;99.90;;;;;;5033748;28;20401;-58
2023/09/02 03:41:48;;;;;;;11.97;11.07;;;18.10;99.90;;;;;;5032695;28;20210;-58
2023/09/02 03:44:14;;;;;;;11.60;10.70;;;18.10;99.90;;;;;;5033657;28;20182;-58
2023/09/02 03:46:39;;;;;;;12.60;11.60;;;17.80;99.90;;;;;;5034212;28;20220;-58
2023/09/02 03:49:05;;;;;;;13.20;12.00;;;17.60;99.90;;;;;;5033457;28;20619;-58
2023/09/02 03:51:31;;;;;;;13.50;12.40;;;17.60;99.90;;;;;;5032196;28;20216;-58
2023/09/02 03:53:56;;;;;;;14.43;13.20;;;17.60;99.90;;;;;;5032652;28;20559;-58
2023/09/02 03:56:22;;;;;;;13.03;12.03;;;17.70;99.90;;;;;;5033426;28;20210;-58
2023/09/02 03:58:48;;;;;;;14.27;13.00;;;17.70;99.90;;;;;;5033551;28;20213;-58
2023/09/02 04:01:14;;;;;;;13.53;12.23;;;17.80;99.90;;;;;;5033134;28;20619;-58
2023/09/02 04:03:40;;;;;;;13.10;12.00;;;17.80;99.90;;;;;;4995136;28;1115494;-58
2023/09/02 04:06:06;;;;;;;13.53;12.27;;;17.80;99.90;;;;;;5035078;28;20449;-58
2023/09/02 04:08:34;;;;;;;12.10;11.20;;;17.90;99.90;;;;;;5034455;28;20478;-59
2023/09/02 04:11:01;;;;;;;13.80;12.40;;;17.90;99.90;;;;;;5035045;28;20172;-58
2023/09/02 04:13:30;;;;;;;12.57;11.50;;;18.00;99.90;;;;;;5033981;28;20440;-58
2023/09/02 04:15:57;;;;;;;12.50;11.50;;;18.00;99.90;;;;;;5034515;28;20417;-59
2023/09/02 04:18:23;;;;;;;12.20;11.17;;;18.00;99.90;;;;;;5033603;28;20417;-59
2023/09/02 04:20:49;;;;;;;13.87;12.67;;;18.10;99.90;;;;;;5034105;28;20805;-59
2023/09/02 04:23:15;;;;;;;13.17;11.87;;;18.10;99.90;;;;;;5034031;28;20449;-58
2023/09/02 04:25:46;;;;;;;12.87;11.70;;;18.20;99.90;;;;;;5034965;28;20401;-58
2023/09/02 04:28:13;;;;;;;11.77;10.80;;;18.20;99.90;;;;;;5034064;28;20405;-58
2023/09/02 04:30:38;;;;;;;12.13;11.00;;;18.20;99.90;;;;;;5034280;28;20417;-58
2023/09/02 04:33:04;;;;;;;12.27;11.20;;;18.20;99.90;;;;;;5034697;28;20408;-58
2023/09/02 04:35:38;;;;;;;11.73;10.83;;;18.20;99.90;;;;;;5033956;28;20178;-59
2023/09/02 04:38:05;;;;;;;11.27;10.30;;;18.20;99.90;;;;;;5034389;28;20253;-59
2023/09/02 04:40:31;;;;;;;13.13;11.83;;;18.20;99.90;;;;;;5032201;28;20499;-60
2023/09/02 04:42:57;;;;;;;11.33;10.43;;;18.50;99.90;;;;;;5034338;28;20453;-59
2023/09/02 04:45:23;;;;;;;11.67;10.67;;;18.80;99.90;;;;;;5033255;28;20904;-60
2023/09/02 04:47:49;;;;;;;11.67;10.83;;;19.10;99.90;;;;;;5032991;28;20488;-60
2023/09/02 04:50:15;;;;;;;11.43;10.53;;;19.40;99.90;;;;;;5033699;28;20205;-60
2023/09/02 04:52:44;;;;;;;10.43;9.70;;;19.60;99.90;;;;;;5034165;28;20463;-60
2023/09/02 04:55:10;;;;;;;12.30;11.13;;;19.80;99.90;;;;;;5034087;28;20556;-60
2023/09/02 04:57:36;;;;;;;11.93;11.03;;;20.00;99.90;;;;;;5033625;28;20885;-60
2023/09/02 05:00:03;;;;;;;10.43;9.57;;;20.20;99.90;;;;;;5034197;28;20401;-60
2023/09/02 05:02:29;;;;;;;11.77;10.77;;;20.30;99.90;;;;;;5032454;28;20336;-60
2023/09/02 05:04:55;;;;;;;12.30;11.20;;;20.40;99.90;;;;;;5034146;28;20552;-60
2023/09/02 05:07:21;;;;;;;11.37;10.47;;;20.50;99.90;;;;;;5033035;28;20256;-60
2023/09/02 05:09:46;;;;;;;11.03;10.13;;;20.60;99.90;;;;;;5033917;28;20173;-60
2023/09/02 05:12:12;;;;;;;12.07;10.97;;;20.70;99.90;;;;;;5033537;28;20181;-61
2023/09/02 05:14:39;;;;;;;10.83;10.03;;;20.70;99.90;;;;;;5033703;28;20185;-60
2023/09/02 05:17:05;;;;;;;12.37;10.83;;;20.80;99.90;;;;;;5033322;28;20467;-59
2023/09/02 05:19:30;;;;;;;11.83;10.73;;;20.80;99.90;;;;;;5033029;28;20869;-60
2023/09/02 05:21:57;;;;;;;11.30;10.47;;;20.90;99.90;;;;;;5033531;28;20205;-60
2023/09/02 05:24:23;;;;;;;11.33;10.53;;;20.90;99.90;;;;;;5033001;28;20202;-60
2023/09/02 05:26:49;;;;;;;11.40;10.53;;;21.00;99.90;;;;;;5033469;28;20765;-60
2023/09/02 05:29:15;;;;;;;10.30;9.40;;;21.00;99.90;;;;;;5032601;28;20397;-61
2023/09/02 05:31:41;;;;;;;10.70;9.80;;;21.00;99.90;;;;;;5033267;28;20822;-60
2023/09/02 05:34:06;;;;;;;11.50;10.50;;;21.00;99.90;;;;;;5033024;28;20501;-60
2023/09/02 05:36:32;;;;;;;11.30;10.40;;;21.10;99.90;;;;;;5031796;28;20218;-61
2023/09/02 05:38:58;;;;;;;11.10;10.30;;;21.10;99.90;;;;;;5032690;28;20174;-60
2023/09/02 05:41:24;;;;;;;11.10;10.20;;;21.00;99.90;;;;;;5032139;28;20172;-60
2023/09/02 05:43:50;;;;;;;11.53;10.67;;;21.00;99.90;;;;;;5031717;28;20471;-61
2023/09/02 05:46:16;;;;;;;11.40;10.50;;;20.90;99.90;;;;;;5031932;28;20170;-61
2023/09/02 05:48:42;;;;;;;11.50;10.40;;;20.80;99.90;;;;;;5032505;28;20421;-61
2023/09/02 05:51:07;;;;;;;10.43;9.60;;;20.60;99.90;;;;;;5030727;28;20231;-61
2023/09/02 05:53:33;;;;;;;12.00;10.90;;;20.40;99.90;;;;;;5031822;28;20517;-61
2023/09/02 05:55:59;;;;;;;12.40;11.23;;;20.20;99.90;;;;;;5032084;28;20283;-60
2023/09/02 05:58:26;;;;;;;11.80;10.70;;;20.00;99.90;;;;;;5031403;28;20178;-61
2023/09/02 06:00:52;;;;;;;12.27;11.27;;;19.80;99.90;;;;;;5031853;28;20181;-61
2023/09/02 06:03:18;;;;;;;11.60;10.70;;;19.70;99.90;;;;;;5031303;28;20468;-61
2023/09/02 06:05:44;;;;;;;12.23;11.23;;;19.60;99.90;;;;;;5032492;28;20673;-61
2023/09/02 06:08:10;;;;;;;12.43;11.33;;;19.40;99.90;;;;;;5031556;28;20166;-61
2023/09/02 06:10:38;;;;;;;14.10;12.60;;;19.30;99.90;;;;;;5030867;28;20367;-61
2023/09/02 06:13:04;;;;;;;11.43;10.53;;;19.30;99.90;;;;;;5032433;28;20264;-60
2023/09/02 06:15:30;;;;;;;11.50;10.60;;;19.20;99.90;;;;;;5031995;28;20488;-61
2023/09/02 06:17:56;;;;;;;11.90;10.90;;;19.20;99.90;;;;;;5031661;28;20264;-61
2023/09/02 06:20:22;;;;;;;11.30;10.30;;;19.20;99.90;;;;;;5030389;28;20249;-61
2023/09/02 06:22:48;;;;;;;12.70;11.40;;;19.10;99.90;;;;;;5031554;28;20252;-61
2023/09/02 06:25:14;;;;;;;11.27;10.40;;;19.10;99.90;;;;;;5031701;28;20417;-61
2023/09/02 06:27:40;;;;;;;11.37;10.47;;;19.00;99.90;;;;;;5031861;28;20174;-61
2023/09/02 06:30:07;;;;;;;12.07;11.07;;;19.00;99.90;;;;;;5032033;28;20177;-62
2023/09/02 06:32:33;;;;;;;12.10;11.20;;;19.00;99.90;;;;;;5031537;28;20261;-61
2023/09/02 06:34:59;;;;;;;12.67;11.60;;;19.00;99.90;;;;;;5027637;28;20414;-62
2023/09/02 06:37:28;;;;;;;11.60;10.70;;;19.00;99.90;;;;;;5031903;28;20404;-61
2023/09/02 06:39:54;;;;;;;11.73;10.80;;;19.00;99.90;;;;;;5032375;28;20183;-62
2023/09/02 06:42:20;;;;;;;10.90;10.03;;;19.00;99.90;;;;;;5031522;28;20917;-62
2023/09/02 06:44:47;;;;;;;11.13;10.10;;;19.00;99.90;;;;;;5032633;28;20882;-62
2023/09/02 06:47:16;;;;;;;12.20;11.20;;;19.00;99.90;;;;;;5032009;28;20193;-61
2023/09/02 06:49:41;;;;;;;11.77;10.37;;;19.00;99.90;;;;;;5031644;28;20451;-62
2023/09/02 06:52:07;;;;;;;10.67;9.87;;;19.00;99.90;;;;;;5032015;28;20495;-62
2023/09/02 06:54:33;;;;;;;10.97;10.07;;;19.00;99.90;;;;;;5031537;28;20268;-62
2023/09/02 06:56:58;;;;;;;10.30;9.60;;;19.00;99.90;;;;;;5032333;28;20216;-62
2023/09/02 06:59:25;;;;;;;10.53;9.83;;;19.10;99.90;;;;;;5031750;28;20170;-62
2023/09/02 07:01:52;;;;;;;12.77;11.63;;;19.20;99.90;;;;;;5031768;28;20601;-62
2023/09/02 07:04:18;;;;;;;12.10;11.20;;;19.20;99.90;;;;;;5032359;28;20453;-62
2023/09/02 07:06:44;;;;;;;10.50;9.70;;;19.20;99.90;;;;;;5032012;28;20423;-62
2023/09/02 07:09:10;;;;;;;11.40;10.43;;;19.30;99.90;;;;;;5032242;28;20167;-62
2023/09/02 07:11:36;;;;;;;9.83;9.13;;;19.30;99.90;;;;;;5031566;28;20166;-62
2023/09/02 07:14:02;;;;;;;10.00;9.30;;;19.30;99.90;;;;;;5030558;28;20405;-62
2023/09/02 07:16:28;;;;;;;9.93;9.23;;;19.30;99.90;;;;;;5030992;28;20420;-62
2023/09/02 07:18:55;;;;;;;9.50;8.90;;;19.40;99.90;;;;;;5031419;28;20178;-62
2023/09/02 07:21:23;;;;;;;12.37;11.50;;;19.40;99.90;;;;;;5030761;28;20432;-62
2023/09/02 07:23:50;;;;;;;13.03;12.03;;;19.40;99.90;;;;;;5031094;28;20445;-62
2023/09/02 07:26:16;;;;;;;9.53;8.80;;;19.50;99.90;;;;;;5032623;28;20420;-62
2023/09/02 07:28:42;;;;;;;9.23;8.63;;;19.50;99.90;;;;;;5035193;28;20754;-62
2023/09/02 07:31:11;;;;;;;9.00;8.40;;;19.50;99.90;;;;;;5035435;28;20942;-62
2023/09/02 07:33:37;;;;;;;9.53;8.93;;;19.50;99.90;;;;;;5034525;28;20417;-62
2023/09/02 07:36:07;;;;;;;10.20;9.50;;;19.60;99.90;;;;;;5034562;28;20417;-62
2023/09/02 07:38:33;;;;;;;10.03;9.43;;;19.60;99.90;;;;;;5034424;28;20178;-63
2023/09/02 07:40:58;;;;;;;10.20;9.50;;;19.70;99.90;;;;;;5034186;28;20809;-62
2023/09/02 07:43:24;;;;;;;9.80;9.10;;;19.70;99.90;;;;;;5033998;28;20208;-62
2023/09/02 07:45:50;;;;;;;9.30;8.70;;;19.70;99.90;;;;;;5034346;28;20170;-62
2023/09/02 07:48:16;;;;;;;7.63;7.23;;;19.70;99.90;;;;;;5034636;28;20424;-62
2023/09/02 07:50:42;;;;;;;8.33;7.73;;;19.80;99.90;;;;;;5033552;28;20444;-62
2023/09/02 07:53:08;;;;;;;8.20;7.70;;;19.80;99.90;;;;;;5034592;28;20457;-62
2023/09/02 07:55:34;;;;;;;8.47;7.97;;;19.80;99.90;;;;;;5032546;28;20452;-62
2023/09/02 07:58:01;;;;;;;7.70;7.00;;;19.80;99.90;;;;;;5034391;28;20182;-62
2023/09/02 08:00:28;;;;;;;6.80;6.40;;;19.80;99.90;;;;;;5033800;28;20166;-62
2023/09/02 08:02:54;;;;;;;7.50;6.90;;;19.90;99.90;;;;;;5032898;28;20460;-62
2023/09/02 08:05:19;;;;;;;7.47;6.90;;;19.90;99.90;;;;;;5034364;28;20527;-62
2023/09/02 08:07:45;;;;;;;7.83;7.27;;;19.90;99.90;;;;;;5032906;28;20440;-62
2023/09/02 08:10:11;;;;;;;7.83;7.33;;;20.00;99.90;;;;;;5034146;28;20173;-62
2023/09/02 08:12:37;;;;;;;8.50;7.93;;;20.10;99.90;;;;;;5033042;28;20252;-62
2023/09/02 08:15:04;;;;;;;8.20;7.70;;;20.20;99.90;;;;;;5034836;28;20166;-62
2023/09/02 08:17:29;;;;;;;8.50;7.90;;;20.20;99.90;;;;;;5034000;28;20405;-62
2023/09/02 08:19:55;;;;;;;8.23;7.70;;;20.30;99.90;;;;;;5034890;28;20757;-62
2023/09/02 08:22:21;;;;;;;7.80;7.30;;;20.30;99.90;;;;;;5033580;28;20539;-62
2023/09/02 08:24:46;;;;;;;8.30;7.70;;;20.40;99.90;;;;;;5033816;28;20324;-62
2023/09/02 08:27:12;;;;;;;8.60;8.00;;;20.40;99.90;;;;;;5034986;28;20170;-62
2023/09/02 08:29:38;;;;;;;8.00;7.50;;;20.40;99.90;;;;;;5032430;28;20532;-62
2023/09/02 08:32:04;;;;;;;7.07;6.67;;;20.50;99.90;;;;;;5034280;28;20175;-62
2023/09/02 08:34:30;;;;;;;8.63;8.13;;;20.50;99.90;;;;;;5015940;28;20228;-62
2023/09/02 08:36:55;;;;;;;7.27;6.87;;;20.60;99.90;;;;;;5033293;28;20179;-62
2023/09/02 08:39:21;;;;;;;7.07;6.67;;;20.60;99.90;;;;;;5033286;28;20170;-62
2023/09/02 08:41:48;;;;;;;6.57;6.27;;;20.70;99.90;;;;;;5032198;28;20285;-62
2023/09/02 08:44:17;;;;;;;6.90;6.57;;;20.70;99.90;;;;;;5034354;28;20194;-62
2023/09/02 08:46:45;;;;;;;7.33;6.83;;;20.80;99.90;;;;;;5033719;28;20463;-62
2023/09/02 08:49:11;;;;;;;6.10;5.80;;;20.80;99.90;;;;;;5034265;28;20397;-62
2023/09/02 08:51:37;;;;;;;6.93;6.47;;;20.90;99.90;;;;;;5015403;28;20409;-62
2023/09/02 08:54:06;;;;;;;6.43;6.03;;;20.80;99.90;;;;;;5033550;28;20740;-62
2023/09/02 08:56:32;;;;;;;6.60;6.30;;;20.80;99.90;;;;;;5033348;28;20507;-62
2023/09/02 08:58:57;;;;;;;7.60;7.10;;;20.80;99.90;;;;;;5034162;28;20814;-62
2023/09/02 09:01:23;;;;;;;7.30;6.90;;;20.90;99.90;;;;;;5032736;28;20661;-62
2023/09/02 09:03:59;;;;;;;6.40;6.10;;;21.00;99.90;;;;;;5032997;28;20318;-62
2023/09/02 09:06:25;;;;;;;7.30;6.90;;;21.00;99.90;;;;;;5032911;28;20867;-62
2023/09/02 09:08:55;;;;;;;7.90;7.43;;;21.20;99.90;;;;;;5033513;28;20500;-62
2023/09/02 09:11:22;;;;;;;8.40;7.90;;;21.20;99.90;;;;;;5033829;28;20626;-63
2023/09/02 09:13:50;;;;;;;8.30;7.80;;;21.30;99.90;;;;;;5032067;28;20487;-62
2023/09/02 09:16:26;;;;;;;7.77;7.30;;;21.40;99.90;;;;;;5017792;28;20420;-62
2023/09/02 09:18:52;;;;;;;8.00;7.50;;;21.50;99.90;;;;;;5033749;28;20455;-62
2023/09/02 09:21:18;;;;;;;7.60;7.20;;;21.50;99.90;;;;;;5033080;28;20806;-62
2023/09/02 09:23:43;;;;;;;8.40;7.80;;;21.60;99.90;;;;;;5032946;28;20536;-62
2023/09/02 09:26:14;;;;;;;7.20;6.60;;;21.70;99.90;;;;;;5033348;28;20177;-62
2023/09/02 09:28:53;;;;;;;7.27;6.87;;;21.80;99.90;;;;;;5033200;28;20616;-62
2023/09/02 09:31:20;;;;;;;7.63;7.23;;;21.90;99.90;;;;;;5033146;28;20944;-62
2023/09/02 09:34:01;;;;;;;8.20;7.70;;;22.00;99.90;;;;;;5032815;28;20420;-62
2023/09/02 09:36:29;;;;;;;6.63;6.33;;;22.20;99.90;;;;;;5032124;28;20423;-62
2023/09/02 09:38:57;;;;;;;6.80;6.43;;;22.30;99.90;;;;;;5033270;28;20421;-62
2023/09/02 09:41:25;;;;;;;6.87;6.57;;;22.40;99.90;;;;;;5033460;28;20410;-62
2023/09/02 09:44:03;;;;;;;6.70;6.40;;;22.50;99.90;;;;;;5032605;28;20467;-61
2023/09/02 09:46:30;;;;;;;6.60;6.30;;;22.70;99.90;;;;;;5032068;28;20470;-62
2023/09/02 09:49:01;;;;;;;6.60;6.20;;;22.80;99.90;;;;;;5021922;28;20901;-62
2023/09/02 09:51:27;;;;;;;7.13;6.73;;;22.90;99.90;;;;;;5033164;28;20393;-62
2023/09/02 09:53:53;;;;;;;7.57;6.97;;;23.10;99.90;;;;;;5031340;28;20405;-63
2023/09/02 09:56:19;;;;;;;6.80;6.37;;;23.20;99.90;;;;;;5031604;28;20427;-66
2023/09/02 09:58:46;;;;;;;6.93;6.53;;;23.20;99.90;;;;;;5032425;28;20817;-65
2023/09/02 10:01:24;;;;;;;6.67;6.33;;;23.30;99.90;;;;;;5032478;28;20421;-66
2023/09/02 10:03:51;;;;;;;6.03;5.73;;;23.40;99.90;;;;;;5032117;28;20748;-65
2023/09/02 10:06:19;;;;;;;6.00;5.70;;;23.50;99.90;;;;;;5032852;28;20411;-70
2023/09/02 10:08:58;;;;;;;5.90;5.60;;;23.60;99.90;;;;;;5031631;28;20421;-65
2023/09/02 10:11:26;;;;;;;6.00;5.80;;;23.70;99.90;;;;;;5031680;28;20508;-65
2023/09/02 10:13:52;;;;;;;5.10;4.80;;;24.00;99.90;;;;;;5031433;28;20417;-64
2023/09/02 10:16:19;;;;;;;5.30;5.10;;;24.20;99.90;;;;;;5028676;28;20819;-65
2023/09/02 10:18:49;;;;;;;5.57;5.30;;;24.40;99.90;;;;;;5031101;28;20417;-66
2023/09/02 10:21:16;;;;;;;4.20;4.10;;;24.60;99.90;;;;;;5030441;28;20405;-65
2023/09/02 10:23:51;;;;;;;4.83;4.63;;;24.80;99.90;;;;;;5029806;28;20501;-65
2023/09/02 10:26:52;;;;;;;4.20;4.10;;;25.00;99.90;;;;;;5031217;28;20421;-65
2023/09/02 10:29:22;;;;;;;4.70;4.20;;;25.10;99.90;;;;;;5000361;28;20511;-65
2023/09/02 10:31:52;;;;;;;4.10;3.77;;;25.20;99.90;;;;;;5031923;28;20500;-65
2023/09/02 10:34:25;;;;;;;3.30;3.20;;;25.40;99.90;;;;;;5032240;28;20795;-65
2023/09/02 10:37:04;;;;;;;3.77;3.67;;;25.50;99.90;;;;;;5031877;28;20464;-65
2023/09/02 10:39:45;;;;;;;3.70;3.60;;;25.50;99.90;;;;;;5032465;28;20520;-65
2023/09/02 10:42:13;;;;;;;3.20;3.10;;;25.50;99.90;;;;;;5031044;28;20484;-65
2023/09/02 10:44:39;;;;;;;3.60;3.43;;;25.50;99.90;;;;;;5031760;28;20389;-65
2023/09/02 10:47:05;;;;;;;3.90;3.80;;;25.50;99.90;;;;;;5032662;28;20405;-65
2023/09/02 10:49:32;;;;;;;4.03;3.80;;;25.60;99.90;;;;;;5032318;28;20257;-65
2023/09/02 10:51:59;;;;;;;4.23;4.13;;;25.70;99.90;;;;;;5032214;28;20417;-65
2023/09/02 10:54:45;;;;;;;4.10;3.80;;;25.70;99.90;;;;;;5031227;28;20437;-65
2023/09/02 10:57:15;;;;;;;3.63;3.53;;;25.70;99.90;;;;;;5032199;28;20463;-65
2023/09/02 10:59:40;;;;;;;3.67;3.57;;;25.60;99.90;;;;;;5031737;28;20443;-65
2023/09/02 11:02:06;;;;;;;4.17;4.07;;;25.70;99.90;;;;;;5035262;28;20480;-65
2023/09/02 11:04:41;;;;;;;3.67;3.57;;;25.60;99.90;;;;;;5035957;28;20217;-65
2023/09/02 11:07:24;;;;;;;3.50;3.40;;;25.60;99.90;;;;;;5036137;28;20181;-65
2023/09/02 11:09:57;;;;;;;3.40;3.30;;;25.60;99.90;;;;;;5033473;28;20460;-65
2023/09/02 11:12:24;;;;;;;5.03;4.43;;;25.60;99.90;;;;;;5016103;28;20408;-65
2023/09/02 11:15:12;;;;;;;3.70;3.60;;;25.70;99.90;;;;;;5015615;28;20402;-65
2023/09/02 11:17:40;;;;;;;4.50;4.10;;;25.60;99.90;;;;;;5015718;28;20394;-65
2023/09/02 11:20:08;;;;;;;3.77;3.67;;;25.60;99.90;;;;;;5016105;28;20417;-65
2023/09/02 11:22:55;;;;;;;4.60;4.20;;;25.50;99.90;;;;;;5015988;28;20450;-65
2023/09/02 11:25:31;;;;;;;4.00;3.80;;;25.50;99.90;;;;;;5016106;28;20414;-65
2023/09/02 11:27:59;;;;;;;3.90;3.80;;;25.40;99.90;;;;;;5015438;28;20491;-65
2023/09/02 11:30:25;;;;;;;3.53;3.23;;;25.40;99.90;;;;;;5015821;28;20468;-65
2023/09/02 11:32:52;;;;;;;3.30;3.10;;;25.40;99.90;;;;;;5015106;28;20468;-65
2023/09/02 11:35:37;;;;;;;4.10;3.90;;;25.30;99.90;;;;;;5015909;28;20410;-65
2023/09/02 11:38:17;;;;;;;4.07;3.80;;;25.40;99.90;;;;;;5015669;28;20386;-65
2023/09/02 11:40:43;;;;;;;4.00;3.80;;;25.40;99.90;;;;;;5015290;28;20398;-65
2023/09/02 11:43:09;;;;;;;3.83;3.63;;;25.30;99.90;;;;;;5015960;28;20922;-65
2023/09/02 11:45:38;;;;;;;3.90;3.70;;;25.30;99.90;;;;;;5015735;28;20169;-65
2023/09/02 11:48:04;;;;;;;4.20;4.00;;;25.30;99.90;;;;;;5015693;28;20175;-65
2023/09/02 11:50:30;;;;;;;4.43;4.20;;;25.20;99.90;;;;;;5015628;28;20740;-65
2023/09/02 11:52:57;;;;;;;3.80;3.70;;;25.20;99.90;;;;;;5015012;28;20673;-66
2023/09/02 11:55:23;;;;;;;3.57;3.43;;;25.20;99.90;;;;;;5014353;28;20237;-65
2023/09/02 11:57:50;;;;;;;4.07;3.80;;;25.20;99.90;;;;;;5014902;28;20755;-65
2023/09/02 12:00:18;;;;;;;3.57;3.47;;;25.10;99.90;;;;;;5015461;28;20441;-65
2023/09/02 12:02:45;;;;;;;3.90;3.80;;;25.10;99.90;;;;;;5014472;28;20464;-65
2023/09/02 12:05:12;;;;;;;4.20;4.10;;;25.00;99.90;;;;;;5015461;28;20454;-65
2023/09/02 12:07:38;;;;;;;4.77;4.47;;;24.90;99.90;;;;;;5014931;28;20940;-65
2023/09/02 12:10:15;;;;;;;4.33;4.03;;;24.80;99.90;;;;;;5015245;28;20477;-65
2023/09/02 12:12:41;;;;;;;4.17;4.07;;;24.70;99.90;;;;;;5014442;28;20398;-65
2023/09/02 12:15:10;;;;;;;4.60;4.40;;;24.60;99.90;;;;;;5015056;28;20751;-65
2023/09/02 12:17:36;;;;;;;4.73;4.53;;;24.50;99.90;;;;;;5014818;28;20402;-65
2023/09/02 12:20:03;;;;;;;4.80;4.50;;;24.50;99.90;;;;;;5014990;28;20400;-65
2023/09/02 12:22:29;;;;;;;5.07;4.87;;;24.30;99.90;;;;;;5015013;28;20573;-65
2023/09/02 12:24:54;;;;;;;4.60;4.40;;;24.20;99.90;;;;;;5014336;28;20427;-65
2023/09/02 12:27:20;;;;;;;5.43;5.13;;;24.20;99.90;;;;;;5014929;28;20398;-65
2023/09/02 12:29:57;;;;;;;4.80;4.60;;;24.20;99.90;;;;;;5014417;28;20174;-65
2023/09/02 12:32:23;;;;;;;4.90;4.60;;;24.20;99.90;;;;;;5014844;28;20166;-65
2023/09/02 12:34:49;;;;;;;4.97;4.53;;;24.10;99.90;;;;;;5013015;28;20493;-65
2023/09/02 12:37:20;;;;;;;4.90;4.50;;;24.10;99.90;;;;;;5014759;28;20525;-65
2023/09/02 12:39:47;;;;;;;5.00;4.63;;;24.00;99.90;;;;;;5014139;28;20163;-65